Colorado AWOS List, Phone Numbers, Maps

USA |  
| Search AWOS

Rocky Mountain States: Montana | Wyoming | Colorado | New Mexico

Complete weather reports: Colorado

Legend: KFNL = METAR available Follow your local AWOS on AV Mobile = METAR available on AV Mobile
Station Colorado Location Frequency Phone
KAKOFAA ID AKO, ASOS, KAKO 270707Z AUTO 11011KT 1SM -SN BR VV009 M13/M14 A3018 RMK AO2 P0000 T11281144 Follow KAKO on AV Mobile COLORADO PLAINS REGIONAL 135.475 970-345-2320
KALSFAA ID ALS, ASOS, KALS 270652Z AUTO 00000KT 1 1/2SM -SN BR BKN013 OVC019 M06/M08 A2982 Follow KALS on AV Mobile SAN LUIS VALLEY REGIONAL 135.175 719-589-5669
KASEFAA ID ASE, ASOS, KASE 270653Z 00000KT 10SM OVC060 M07/M09 A2977 Follow KASE on AV Mobile ASPEN-PITKIN COUNTY AIRPORT 120.400 970-925-9168
KBKFFAA ID BKF, KBKF 270658Z 19014KT 10SM -SN SCT014 BKN031 OVC043 M12/M16 A3006 Follow KBKF on AV Mobile Aurora, Buckley Air Force Base Airport
K7BMFAA ID 7BM, AWOS-3, K7BM 270654Z AUTO 00000KT 2 1/2SM -SN BKN017 OVC029 M15/M18 A2980 RMK AO2 Follow K7BM on AV Mobile Cottonwood Pass 132.050 303-512-4919
KBDUFAA ID BDU, AWOS-3, KBDU 270656Z AUTO 32004KT 7SM -SN SCT006 BKN080 OVC120 M12/M13 A3009 RMK AO2 Follow KBDU on AV Mobile Boulder Municipal Airport 118.825 303-541-9540
KAEJFAA ID AEJ, AWOS-3, KAEJ 270655Z AUTO 12007KT 3SM -SN SCT014 OVC020 M14/M17 A2992 RMK AO2 T11451167 Follow KAEJ on AV Mobile Central Colorado Regional Airport 132.925 719-395-2599
KITRFAA ID ITR, ASOS, KITR 270701Z AUTO 14010KT 3SM -SN OVC027 M11/M13 A3025 RMK AO2 P0000 T11061133 Follow KITR on AV Mobile Kit Carson County Airport 135.225 719-346-7036
K1V6FAA ID 1V6, AWOS-3, K1V6 270655Z AUTO 04003KT 3SM -SN OVC025 M11/M13 A3012 RMK AO2 Follow K1V6 on AV Mobile CANON CITY 120.025
KAFFFAA ID AFF, KAFF 270708Z AUTO 17007KT 3SM -SN BKN002 OVC011 M14/M17 A3002 RMK AO2 BKN V OVC Follow KAFF on AV Mobile Air Force Academy
KCOSFAA ID COS, ASOS, KCOS 270654Z 15009KT 3/4SM R17L/P6000FT -SN BR VV016 M13/M14 A3007 Follow KCOS on AV Mobile COLORADO SPRINGS MUNI 125.000 719-637-9696
KFLYFAA ID FLY, AWOS-3PT, KFLY 270652Z AUTO 17007KT 4SM -SN SCT012 BKN020 OVC030 M15/M17 A3002 RMK AO2 T11501168 410881166 Follow KFLY on AV Mobile Meadowlake Airport, Peyton, CO 118.450 719-683-5371
KCCUFAA ID CCU, AWOS-3, KCCU 270655Z AUTO 26013G18KT 3SM -SN BKN014 OVC021 M11/M15 A2969 RMK AO2 Follow KCCU on AV Mobile Copper Mountain, Red Cliff Pass 118.075 970-968-1715
KCEZFAA ID CEZ, ASOS, KCEZ 270708Z AUTO 01003KT 1 1/2SM BR OVC003 M03/M03 A2985 RMK AO2 T10281033 Follow KCEZ on AV Mobile CORTEZ MONTEZUMA COUNTY AIRPORT 135.625 970-564-0193
KCAGFAA ID CAG, ASOS, KCAG 270653Z AUTO 24003KT 10SM M07/M08 A2986 Follow KCAG on AV Mobile CRAIG MOFFAT AIRPORT 135.425 970-824-2373
KAJZFAA ID AJZ, AWOS-3, KAJZ 270655Z AUTO 06005KT 10SM OVC075 01/M02 A2985 RMK AO2 T00131021 Follow KAJZ on AV Mobile Blake Field Airport 134.000 970-874-3251
KDNRICAO ID KDNR Denver / Stapleton International, Co.
KAPAFAA ID APA, ASOS, KAPA 270653Z 20007KT 5SM -SN BR OVC038 M13/M17 A3004 RMK AO2 SLP258 P0000 T11331167 410831156 Follow KAPA on AV Mobile DENVER CENTENNIAL AIRPORT 120.300 303-706-9098
KDENFAA ID DEN, ASOS, KDEN 270658Z 20014KT 1SM R35L/P6000FT -SN BR OVC033 M12/M14 A3006 Follow KDEN on AV Mobile DENVER INTERNATIONAL AIRPORT 125.600 303-342-0838
KFTGFAA ID FTG, AWOS-3, KFTG 262250Z 12005KT 2SM -SN OVC011 M08/M11 A3011 Follow KFTG on AV Mobile Front Range Airport 119.025 303-261-9104
KBJCFAA ID BJC, AWOS-3, KBJC 270655Z AUTO 33010KT 5SM BR SCT026 OVC038 M12/M13 A3006 Follow KBJC on AV Mobile Rocky Mountain Metro Airport 126.250 720-887-8067
K4V5ICAO ID K4V5 Durango Aviation Weather Reporting Station
KDROFAA ID DRO, ASOS, KDRO 270653Z AUTO 00000KT 7SM -SN BKN023 OVC034 M03/M03 A2981 RMK AO2 SLP118 P0001 T10281033 400221111 Follow KDRO on AV Mobile DURANGO-LA PLATA COUNTY AIRPORT 120.625 970-259-3579
KEGEFAA ID EGE, AWOS-3, KEGE 270655Z AUTO 26003KT 8SM FEW017 BKN022 OVC050 M03/M04 A2982 Follow KEGE on AV Mobile Eagle County Regional 135.575 970-524-7386
CO90FAA ID CO90, ASOS, KTEX 070640Z AUTO 15005KT 10SM CLR 02/M16 A3038 RMK AO2 T00201164 Follow  on AV Mobile USAF Academy Bullseye Aux Airstrip 118.325 719-683-3346
K0COFAA ID 0CO, AWOS-3, K0CO 270655Z AUTO 32011KT 1/2SM SN OVC004 M17/M20 A2967 RMK AO2 Follow K0CO on AV Mobile EMPIRE 134.325
KEIKFAA ID EIK, AWOS-3, KEIK 270655Z AUTO 31005KT 3SM -SN OVC120 M13/M14 A3009 RMK AO2 T11321144 Follow KEIK on AV Mobile Erie Municipal Airport 133.825 303-604-4339
KFCSFAA ID FCS, KFCS 270611Z 14008KT 1/2SM -SN FG BKN002 OVC015 M13/M14 A3009 RMK CIG 002V004 Follow KFCS on AV Mobile Fort Carson
KFCLICAO ID KFCL Fort Collins Supplementary Aviation Weather Reporting Station
KFNLFAA ID FNL, AWOS-3, KFNL 270655Z AUTO 09004KT 1 3/4SM CLR M12/M13 A3013 RMK AO1 Follow KFNL on AV Mobile Fort Collins/Loveland, Fort Collins-Loveland Municipal Airport 135.075 970-669-9187
KFMMFAA ID FMM, AWOS-3, KFMM 270655Z AUTO 13009KT 3SM -SN SCT008 OVC015 M11/M13 A3019 RMK AO2 T11071126 Follow KFMM on AV Mobile Fort Morgan Municipal Airport 132.950 970-867-4823
KGNBFAA ID GNB, AWOS-1 Granby-Grand County Airport 119.925 970-887-1803
KGJTFAA ID GJT, ASOS, KGJT 270653Z AUTO 00000KT 10SM BKN041 OVC055 01/M04 A2984 Follow KGJT on AV Mobile GRAND JUNCTION WALKER FIELD 118.550 970-245-7881
KGXYFAA ID GXY, AWOS-3, KGXY 270655Z AUTO 11014G19KT 7SM FEW026 M11/M15 A3013 RMK AO1 Follow KGXY on AV Mobile Greeley, Greeley-Weld County Airport 135.175 970-352-3511
K2V9ICAO ID K2V9 Gunnison Aviation Weather Reporting Station
KGUCFAA ID GUC, AWOS-3, KGUC 270655Z 00000KT 10SM CLR M09/M12 A2983 RMK AO1 Follow KGUC on AV Mobile Gunnison, Gunnison-Crested Butte Regional Airport 135.075 970-641-3240
KHDNFAA ID HDN, AWOS-3, KHDN 270655Z AUTO 28003KT 5SM FEW005 SCT010 BKN028 M07/M08 A2984 RMK AO1 Follow KHDN on AV Mobile Hayden, Yampa Valley Airport 119.275 970-276-3690
KHEQFAA ID HEQ, AWOS-3, KHEQ 200205Z AUTO 16004KT 10SM CLR 02/M06 A2989 RMK AO2 Follow KHEQ on AV Mobile Holyoke Airport 119.275 970-854-3679
K20VFAA ID 20V, AWOS-3, K20V 270654Z AUTO 35005KT 10SM SCT048 BKN070 OVC100 M08/M12 A2983 RMK AO2 Follow K20V on AV Mobile Kremmling, Mc Elroy Airfield 118.425 970-724-9659
KLHXFAA ID LHX, ASOS, KLHX 270705Z AUTO 11014KT 1 1/4SM -SN BR OVC014 M09/M12 A3020 RMK AO2 P0000 T10941117 Follow KLHX on AV Mobile LA JUNTA MUNICIPAL AIRPORT 135.525 719-384-5961
KVTPFAA ID VTP, AWOS-3, KVTP 270655Z AUTO 02008KT 3/4SM SN OVC003 M19/M21 A2978 RMK AO2 Follow KVTP on AV Mobile La Veta Mountain, La Veta Pass 119.925 719-587-3120
KLAAFAA ID LAA, ASOS, KLAA 270705Z AUTO 10006KT 1 3/4SM -SN BR OVC035 M09/M11 A3026 RMK AO2 SNB0657 P0000 T10941111 Follow KLAA on AV Mobile LAMAR MUNICIPAL AIRPORT 135.625 719-336-3854
KLXVFAA ID LXV, ASOS, KLXV 270653Z AUTO 17009KT 5SM UP BR OVC038 M19/M21 A2977 Follow KLXV on AV Mobile LEADVILLE LAKE CO 118.375 719-486-2735
KLICFAA ID LIC, ASOS, KLIC 270655Z AUTO 14013KT 3SM -SN BR OVC017 M13/M15 A3013 RMK AO2 SLP272 P0000 T11331150 410671139 Follow KLIC on AV Mobile LIMON MUNICIPAL AIRPORT 121.125 719-775-0515
KLMOFAA ID LMO, AWOS-3, KLMO 270654Z AUTO 34006KT 5SM -SN SCT014 BKN023 OVC030 M10/M12 A3013 RMK AO2 T11021124 Follow KLMO on AV Mobile Vance Brand Airport 120.000 303-684-7545
KEEOFAA ID EEO, ASOS, KEEO 270653Z AUTO 00000KT 2 1/2SM -SN BR OVC007 M04/M06 A2984 RMK AO2 SLP117 P0001 T10441056 400171106 Follow KEEO on AV Mobile MEEKER AIRPORT 135.525 970-878-5036
KMYPFAA ID MYP, AWOS-3, KMYP 270654Z AUTO BKN001 OVC013 M13/M15 A2981 RMK AO2 PWINO Follow KMYP on AV Mobile Salida Mountain, Monarch Pass 124.175 719-539-4436
KMTJFAA ID MTJ, ASOS, KMTJ 270653Z AUTO 15005KT 10SM OVC070 M02/M06 A2986 RMK AO2 SLP115 T10221056 400111128 Follow KMTJ on AV Mobile MONTROSE REGIONAL AIRPORT 135.225 970-249-1534
KMNHFAA ID MNH, AWOS-3, KMNH 270656Z AUTO 18012KT 10SM OVC044 M16/M18 A2997 RMK AO2 Follow KMNH on AV Mobile Elbert Mountain, Monument Pass 134.375 303-648-3479
K3MWFAA ID 3MW, AWOS-3, K3MW 211630Z AUTO RMK AO2 TSNO PWINO Follow K3MW on AV Mobile Mount Werner 127.125 970-871-5640
KCRVICAO ID KCRV Nederland Mountain, Corona Pass
KAIBFAA ID AIB, AWOS-3, KAIB 270655Z AUTO 17003KT 10SM OVC026 M01/M04 A2988 RMK AO2 Follow KAIB on AV Mobile Hopkins Field Airport 132.525 970-864-2325
KPSOFAA ID PSO, AWOS-3, KPSO 270655Z AUTO 00000KT 4SM -SN OVC020 M03/M03 A2980 RMK AO2 T10301030 Follow KPSO on AV Mobile Stevens Field Airport 127.175 970-731-0365
KPEFICAO ID KPEF Peterson Air Force Base
KPUXICAO ID KPUX Pueblo NEXRAD
KPUBFAA ID PUB, ASOS, KPUB 270653Z AUTO 10006KT 1 1/2SM -SN BR OVC014 M11/M12 A3016 Follow KPUB on AV Mobile PUEBLO MEMORIAL AIRPORT 125.250 719-948-2803
K1V1ICAO ID K1V1 Rifle Aviation Weather Reporting Station
KRILFAA ID RIL, ASOS, KRIL 270708Z AUTO 00000KT 2 1/2SM -SN BR OVC026 M01/M02 A2983 RMK AO2 P0000 T10111022 Follow KRIL on AV Mobile RIFLE GARFIELD COUNTY RGNL 135.275 970-625-2206
K04VFAA ID 04V, AWOS-3, K04V 270654Z AUTO 00000KT 1 1/4SM -SN OVC016 M05/M06 A2981 RMK AO2 Follow K04V on AV Mobile Saguache, Saguache Municipal Airport 118.625 719-655-2229
KS29ICAO ID KS29 Salida
KANKFAA ID ANK, AWOS-3, KANK 270655Z AUTO 11007KT 7SM SCT022 BKN047 OVC110 M13/M16 A3002 RMK AO1 T11311157 Follow KANK on AV Mobile Harriet Alexander Field Airport 133.850 719-539-5268
KSPDICAO ID KSPD, KSPD 270656Z AUTO 12010KT M11/M12 A3021 RMK AO1 SLP280 P0002 T11111122 410331111 Follow KSPD on AV Mobile SPRINGFIELD COMANCHE NATL
KSBSFAA ID SBS, AWOS-3, KSBS 270655Z AUTO 00000KT 10SM SCT024 BKN039 OVC047 M08/M10 A2983 RMK AO1 T10801099 Follow KSBS on AV Mobile Steamboat Springs 118.325 970-879-7794
KSTKFAA ID STK, AWOS-3, KSTK 270650Z AUTO 11008KT 4SM -SN OVC015 M11/M13 A3025 RMK AO2 Follow KSTK on AV Mobile Sterling Municipal Airport 118.525 970-526-3009
K5SMFAA ID 5SM, AWOS-3, K5SM 270655Z AUTO 00000KT 3/4SM SN SCT001 OVC006 M09/M11 A2970 RMK AO2 Follow K5SM on AV Mobile Sunlight 126.075 970-384-3380
KTEXFAA ID TEX, AWOS-3, KTEX 270655Z AUTO 26004KT 2 1/2SM -SN SCT029 BKN046 OVC050 M07/M07 A2980 RMK AO2 T10661071 410051123 Follow KTEX on AV Mobile Telluride, Telluride Regional Airport 118.325 970-728-1534
KTADFAA ID TAD, ASOS, KTAD 270654Z AUTO 32010KT 1SM -SN BR VV013 M12/M14 A3006 RMK AO2 SLP235 P0000 T11171139 410441117 Follow KTAD on AV Mobile Trinidad, Perry Stokes Airport 119.025 719-845-1156
K33VFAA ID 33V, AWOS-3, K33V 270655Z AUTO 00000KT 2 1/2SM SCT019 BKN090 OVC110 M13/M16 A2981 RMK AO2 VIS 1 1/2V3 Follow K33V on AV Mobile WALDEN 118.625 970-723-4513
4V1FAA ID 4V1, AWOS-3, KTEX 070640Z AUTO 15005KT 10SM CLR 02/M16 A3038 RMK AO2 T00201164 Follow  on AV Mobile Spanish Peaks Airfield 123.600 719-738-1053
K4BMFAA ID 4BM, AWOS-3, K4BM 270656Z AUTO 24004KT 10SM SCT090 M21/M23 A2974 RMK AO2 Follow K4BM on AV Mobile Wilkerson Pass 132.3 303-512-4418
KC96ICAO ID KC96 Winter Park Resort
KCPWFAA ID CPW, AWOS-3, KCPW 270654Z AUTO 23019G27KT 1/2SM +SN OVC001 M12/M12 A2976 RMK AO2 P0003 Follow KCPW on AV Mobile Pagosa Springs, Wolf Creek Pass 121.125 970-264-2180
K2V5FAA ID 2V5, AWOS-3, K2V5 270655Z AUTO 10010KT 10SM SCT035 OVC041 M10/M16 A3031 RMK AO2 T11001162 Follow K2V5 on AV Mobile Wray Municipal Airport 118.250 970-332-5930

Click on the AV Mobile icon AV Mobile icon by any station to follow that AWOS feed on AirportView.net Mobile.

Legend: Commercial service airport with AWOS Commercial Airport AWOSNon-Commercial service airport with AWOS Non-Commercial Airport AWOS
Airport AWOS - Click symbol for weather report Fort Morgan Municipal Airport KFMM 270655Z AUTO 13009KT 3SM -SN SCT008 OVC015 M11/M13 A3019 RMK AO2 T11071126 Hopkins Field Airport KAIB 270655Z AUTO 17003KT 10SM OVC026 M01/M04 A2988 RMK AO2 Telluride, Telluride Regional Airport KTEX 270655Z AUTO 26004KT 2 1/2SM -SN SCT029 BKN046 OVC050 M07/M07 A2980 RMK AO2 T10661071 410051123 Greeley, Greeley-Weld County Airport KGXY 270655Z AUTO 11014G19KT 7SM FEW026 M11/M15 A3013 RMK AO1 Front Range Airport KFTG 262250Z 12005KT 2SM -SN OVC011 M08/M11 A3011 Rocky Mountain Metro Airport KBJC 270655Z AUTO 33010KT 5SM BR SCT026 OVC038 M12/M13 A3006 DENVER CENTENNIAL AIRPORT KAPA 270653Z 20007KT 5SM -SN BR OVC038 M13/M17 A3004 RMK AO2 SLP258 P0000 T11331167 410831156 DENVER INTERNATIONAL AIRPORT KDEN 270658Z 20014KT 1SM R35L/P6000FT -SN BR OVC033 M12/M14 A3006 Fort Collins/Loveland, Fort Collins-Loveland Municipal Airport KFNL 270655Z AUTO 09004KT 1 3/4SM CLR M12/M13 A3013 RMK AO1 Boulder Municipal Airport KBDU 270656Z AUTO 32004KT 7SM -SN SCT006 BKN080 OVC120 M12/M13 A3009 RMK AO2 Vance Brand Airport KLMO 270654Z AUTO 34006KT 5SM -SN SCT014 BKN023 OVC030 M10/M12 A3013 RMK AO2 T11021124 Sterling Municipal Airport KSTK 270650Z AUTO 11008KT 4SM -SN OVC015 M11/M13 A3025 RMK AO2 Holyoke Airport KHEQ 200205Z AUTO 16004KT 10SM CLR 02/M06 A2989 RMK AO2 COLORADO PLAINS REGIONAL KAKO 270707Z AUTO 11011KT 1SM -SN BR VV009 M13/M14 A3018 RMK AO2 P0000 T11281144 Kit Carson County Airport KITR 270701Z AUTO 14010KT 3SM -SN OVC027 M11/M13 A3025 RMK AO2 P0000 T11061133 LIMON MUNICIPAL AIRPORT KLIC 270655Z AUTO 14013KT 3SM -SN BR OVC017 M13/M15 A3013 RMK AO2 SLP272 P0000 T11331150 410671139 COLORADO SPRINGS MUNI KCOS 270654Z 15009KT 3/4SM R17L/P6000FT -SN BR VV016 M13/M14 A3007 LAMAR MUNICIPAL AIRPORT KLAA 270705Z AUTO 10006KT 1 3/4SM -SN BR OVC035 M09/M11 A3026 RMK AO2 SNB0657 P0000 T10941111 LA JUNTA MUNICIPAL AIRPORT KLHX 270705Z AUTO 11014KT 1 1/4SM -SN BR OVC014 M09/M12 A3020 RMK AO2 P0000 T10941117 Trinidad, Perry Stokes Airport KTAD 270654Z AUTO 32010KT 1SM -SN BR VV013 M12/M14 A3006 RMK AO2 SLP235 P0000 T11171139 410441117 PUEBLO MEMORIAL AIRPORT KPUB 270653Z AUTO 10006KT 1 1/2SM -SN BR OVC014 M11/M12 A3016 CANON CITY 1V6 SAN LUIS VALLEY REGIONAL KALS 270652Z AUTO 00000KT 1 1/2SM -SN BR BKN013 OVC019 M06/M08 A2982 Saguache, Saguache Municipal Airport K04V 270654Z AUTO 00000KT 1 1/4SM -SN OVC016 M05/M06 A2981 RMK AO2 Granby-Grand County Airport KGNB WALDEN 33V Steamboat Springs KSBS 270655Z AUTO 00000KT 10SM SCT024 BKN039 OVC047 M08/M10 A2983 RMK AO1 T10801099 Hayden, Yampa Valley Airport KHDN 270655Z AUTO 28003KT 5SM FEW005 SCT010 BKN028 M07/M08 A2984 RMK AO1 Kremmling, Mc Elroy Airfield K20V 270654Z AUTO 35005KT 10SM SCT048 BKN070 OVC100 M08/M12 A2983 RMK AO2 LEADVILLE LAKE CO KLXV 270653Z AUTO 17009KT 5SM UP BR OVC038 M19/M21 A2977 Eagle County Regional KEGE 270655Z AUTO 26003KT 8SM FEW017 BKN022 OVC050 M03/M04 A2982 CRAIG MOFFAT AIRPORT KCAG 270653Z AUTO 24003KT 10SM M07/M08 A2986 MEEKER AIRPORT KEEO 270653Z AUTO 00000KT 2 1/2SM -SN BR OVC007 M04/M06 A2984 RMK AO2 SLP117 P0001 T10441056 400171106 ASPEN-PITKIN COUNTY AIRPORT KASE 270653Z 00000KT 10SM OVC060 M07/M09 A2977 Gunnison, Gunnison-Crested Butte Regional Airport KGUC 270655Z 00000KT 10SM CLR M09/M12 A2983 RMK AO1 DURANGO-LA PLATA COUNTY AIRPORT  KDRO 270653Z AUTO 00000KT 7SM -SN BKN023 OVC034 M03/M03 A2981 RMK AO2 SLP118 P0001 T10281033 400221111 Stevens Field Airport KPSO 270655Z AUTO 00000KT 4SM -SN OVC020 M03/M03 A2980 RMK AO2 T10301030 CORTEZ MONTEZUMA COUNTY AIRPORT  KCEZ 270708Z AUTO 01003KT 1 1/2SM BR OVC003 M03/M03 A2985 RMK AO2 T10281033 MONTROSE REGIONAL AIRPORT KMTJ 270653Z AUTO 15005KT 10SM OVC070 M02/M06 A2986 RMK AO2 SLP115 T10221056 400111128 RIFLE GARFIELD COUNTY RGNL KRIL 270708Z AUTO 00000KT 2 1/2SM -SN BR OVC026 M01/M02 A2983 RMK AO2 P0000 T10111022 GRAND JUNCTION WALKER FIELD KGJT 270653Z AUTO 00000KT 10SM BKN041 OVC055 01/M04 A2984 Blake Field Airport KAJZ 270655Z AUTO 06005KT 10SM OVC075 01/M02 A2985 RMK AO2 T00131021 Central Colorado Regional Airport KAEJ 270655Z AUTO 12007KT 3SM -SN SCT014 OVC020 M14/M17 A2992 RMK AO2 T11451167 Harriet Alexander Field Airport KANK 270655Z AUTO 11007KT 7SM SCT022 BKN047 OVC110 M13/M16 A3002 RMK AO1 T11311157 Erie Municipal Airport KEIK 270655Z AUTO 31005KT 3SM -SN OVC120 M13/M14 A3009 RMK AO2 T11321144 Wray Municipal Airport K2V5 270655Z AUTO 10010KT 10SM SCT035 OVC041 M10/M16 A3031 RMK AO2 T11001162
Legend: High Mountain AWOS Mountain Pass AWOS
Mountain Pass AWOS - Click symbol for weather report Pagosa Springs, Wolf Creek Pass KCPW 270654Z AUTO 23019G27KT 1/2SM +SN OVC001 M12/M12 A2976 RMK AO2 P0003 Saguache, Saguache Municipal Airport K04V 270654Z AUTO 00000KT 1 1/4SM -SN OVC016 M05/M06 A2981 RMK AO2 Kremmling, Mc Elroy Airfield K20V 270654Z AUTO 35005KT 10SM SCT048 BKN070 OVC100 M08/M12 A2983 RMK AO2 La Veta Mountain, La Veta Pass KVTP 270655Z AUTO 02008KT 3/4SM SN OVC003 M19/M21 A2978 RMK AO2 Salida Mountain, Monarch Pass KMYP 270654Z AUTO BKN001 OVC013 M13/M15 A2981 RMK AO2 PWINO Cottonwood Pass K7BM 270654Z AUTO 00000KT 2 1/2SM -SN BKN017 OVC029 M15/M18 A2980 RMK AO2 Elbert Mountain, Monument Pass KMNH 270656Z AUTO 18012KT 10SM OVC044 M16/M18 A2997 RMK AO2 Wilkerson Pass K4BM 270656Z AUTO 24004KT 10SM SCT090 M21/M23 A2974 RMK AO2 Copper Mountain, Red Cliff Pass KCCU 270655Z AUTO 26013G18KT 3SM -SN BKN014 OVC021 M11/M15 A2969 RMK AO2 EMPIRE 0CO Sunlight K5SM 270655Z AUTO 00000KT 3/4SM SN SCT001 OVC006 M09/M11 A2970 RMK AO2 Mount Werner K3MW 211630Z AUTO RMK AO2 TSNO PWINO
Garmin aera 796 $1999 at Avionics Specialists LLC
Bose A20 Aviation Headsets $995 at Avionics Specialists LLC